sensor_id;sensor_type;location;lat;lon;timestamp;P1;durP1;ratioP1;P2;durP2;ratioP2
36351;SDS011;22382;44.768;17.206;2023-04-10T00:00:35;20.65;;;12.70;;
36351;SDS011;22382;44.768;17.206;2023-04-10T00:03:03;20.02;;;13.90;;
36351;SDS011;22382;44.768;17.206;2023-04-10T00:05:31;18.23;;;12.55;;
36351;SDS011;22382;44.768;17.206;2023-04-10T00:07:58;18.48;;;13.00;;
36351;SDS011;22382;44.768;17.206;2023-04-10T00:10:26;17.77;;;13.25;;
36351;SDS011;22382;44.768;17.206;2023-04-10T00:12:55;17.70;;;12.93;;
36351;SDS011;22382;44.768;17.206;2023-04-10T00:15:23;19.95;;;13.95;;
36351;SDS011;22382;44.768;17.206;2023-04-10T00:17:50;18.33;;;12.95;;
36351;SDS011;22382;44.768;17.206;2023-04-10T00:20:21;19.13;;;13.35;;
36351;SDS011;22382;44.768;17.206;2023-04-10T00:22:48;17.73;;;12.70;;
36351;SDS011;22382;44.768;17.206;2023-04-10T00:25:15;20.40;;;14.05;;
36351;SDS011;22382;44.768;17.206;2023-04-10T00:27:43;18.52;;;12.77;;
36351;SDS011;22382;44.768;17.206;2023-04-10T00:30:10;19.63;;;13.65;;
36351;SDS011;22382;44.768;17.206;2023-04-10T00:32:37;18.20;;;13.10;;
36351;SDS011;22382;44.768;17.206;2023-04-10T00:35:05;18.85;;;12.88;;
36351;SDS011;22382;44.768;17.206;2023-04-10T00:37:33;17.63;;;12.57;;
36351;SDS011;22382;44.768;17.206;2023-04-10T00:40:01;19.67;;;14.00;;
36351;SDS011;22382;44.768;17.206;2023-04-10T00:42:28;19.02;;;13.30;;
36351;SDS011;22382;44.768;17.206;2023-04-10T00:44:55;19.73;;;13.10;;
36351;SDS011;22382;44.768;17.206;2023-04-10T00:47:22;17.65;;;12.32;;
36351;SDS011;22382;44.768;17.206;2023-04-10T00:49:51;18.48;;;12.88;;
36351;SDS011;22382;44.768;17.206;2023-04-10T00:52:18;19.00;;;13.18;;
36351;SDS011;22382;44.768;17.206;2023-04-10T00:54:45;18.88;;;13.23;;
36351;SDS011;22382;44.768;17.206;2023-04-10T00:57:13;20.80;;;13.52;;
36351;SDS011;22382;44.768;17.206;2023-04-10T00:59:40;21.20;;;14.38;;
36351;SDS011;22382;44.768;17.206;2023-04-10T01:02:07;22.52;;;14.35;;
36351;SDS011;22382;44.768;17.206;2023-04-10T01:04:36;24.17;;;14.35;;
36351;SDS011;22382;44.768;17.206;2023-04-10T01:07:08;20.27;;;13.65;;
36351;SDS011;22382;44.768;17.206;2023-04-10T01:09:58;20.42;;;14.30;;
36351;SDS011;22382;44.768;17.206;2023-04-10T01:15:15;25.38;;;16.35;;
36351;SDS011;22382;44.768;17.206;2023-04-10T01:17:49;23.55;;;15.60;;
36351;SDS011;22382;44.768;17.206;2023-04-10T01:20:33;25.35;;;16.30;;
36351;SDS011;22382;44.768;17.206;2023-04-10T01:26:02;24.95;;;15.77;;
36351;SDS011;22382;44.768;17.206;2023-04-10T01:34:18;22.58;;;15.43;;
36351;SDS011;22382;44.768;17.206;2023-04-10T01:36:49;23.15;;;15.90;;
36351;SDS011;22382;44.768;17.206;2023-04-10T01:39:20;26.83;;;16.15;;
36351;SDS011;22382;44.768;17.206;2023-04-10T01:41:49;25.33;;;16.45;;
36351;SDS011;22382;44.768;17.206;2023-04-10T01:44:20;23.15;;;16.48;;
36351;SDS011;22382;44.768;17.206;2023-04-10T01:46:54;25.75;;;16.27;;
36351;SDS011;22382;44.768;17.206;2023-04-10T01:49:23;27.83;;;17.33;;
36351;SDS011;22382;44.768;17.206;2023-04-10T01:51:52;24.63;;;16.05;;
36351;SDS011;22382;44.768;17.206;2023-04-10T01:54:26;24.33;;;15.77;;
36351;SDS011;22382;44.768;17.206;2023-04-10T01:56:54;22.73;;;15.52;;
36351;SDS011;22382;44.768;17.206;2023-04-10T01:59:22;22.85;;;15.00;;
36351;SDS011;22382;44.768;17.206;2023-04-10T02:01:54;20.42;;;14.75;;
36351;SDS011;22382;44.768;17.206;2023-04-10T02:04:23;22.15;;;15.05;;
36351;SDS011;22382;44.768;17.206;2023-04-10T02:07:02;22.25;;;15.32;;
36351;SDS011;22382;44.768;17.206;2023-04-10T02:12:17;21.10;;;14.43;;
36351;SDS011;22382;44.768;17.206;2023-04-10T02:14:52;21.20;;;14.80;;
36351;SDS011;22382;44.768;17.206;2023-04-10T02:17:23;23.00;;;15.85;;
36351;SDS011;22382;44.768;17.206;2023-04-10T02:19:54;24.00;;;15.98;;
36351;SDS011;22382;44.768;17.206;2023-04-10T02:22:22;22.13;;;15.13;;
36351;SDS011;22382;44.768;17.206;2023-04-10T02:24:51;24.75;;;16.48;;
36351;SDS011;22382;44.768;17.206;2023-04-10T02:27:25;20.88;;;14.85;;
36351;SDS011;22382;44.768;17.206;2023-04-10T02:29:57;24.05;;;16.00;;
36351;SDS011;22382;44.768;17.206;2023-04-10T02:32:24;25.38;;;16.75;;
36351;SDS011;22382;44.768;17.206;2023-04-10T02:34:51;24.55;;;16.33;;
36351;SDS011;22382;44.768;17.206;2023-04-10T02:37:18;23.65;;;15.93;;
36351;SDS011;22382;44.768;17.206;2023-04-10T02:39:46;23.20;;;15.85;;
36351;SDS011;22382;44.768;17.206;2023-04-10T02:42:14;22.70;;;15.68;;
36351;SDS011;22382;44.768;17.206;2023-04-10T02:44:41;23.73;;;15.23;;
36351;SDS011;22382;44.768;17.206;2023-04-10T02:47:08;24.63;;;16.05;;
36351;SDS011;22382;44.768;17.206;2023-04-10T02:49:35;23.67;;;15.68;;
36351;SDS011;22382;44.768;17.206;2023-04-10T02:52:03;23.63;;;15.82;;
36351;SDS011;22382;44.768;17.206;2023-04-10T02:54:30;23.98;;;16.23;;
36351;SDS011;22382;44.768;17.206;2023-04-10T02:56:57;26.33;;;16.58;;
36351;SDS011;22382;44.768;17.206;2023-04-10T02:59:25;25.42;;;17.05;;
36351;SDS011;22382;44.768;17.206;2023-04-10T03:01:53;26.35;;;16.38;;
36351;SDS011;22382;44.768;17.206;2023-04-10T03:04:20;25.02;;;15.45;;
36351;SDS011;22382;44.768;17.206;2023-04-10T03:06:47;23.33;;;14.93;;
36351;SDS011;22382;44.768;17.206;2023-04-10T03:09:14;23.48;;;15.48;;
36351;SDS011;22382;44.768;17.206;2023-04-10T03:11:42;25.15;;;15.50;;
36351;SDS011;22382;44.768;17.206;2023-04-10T03:14:09;23.13;;;15.75;;
36351;SDS011;22382;44.768;17.206;2023-04-10T03:16:36;26.15;;;16.95;;
36351;SDS011;22382;44.768;17.206;2023-04-10T03:19:03;24.42;;;15.57;;
36351;SDS011;22382;44.768;17.206;2023-04-10T03:21:30;21.70;;;14.77;;
36351;SDS011;22382;44.768;17.206;2023-04-10T03:23:58;23.23;;;15.00;;
36351;SDS011;22382;44.768;17.206;2023-04-10T03:26:25;20.45;;;14.10;;
36351;SDS011;22382;44.768;17.206;2023-04-10T03:28:53;20.27;;;13.90;;
36351;SDS011;22382;44.768;17.206;2023-04-10T03:31:20;18.98;;;13.32;;
36351;SDS011;22382;44.768;17.206;2023-04-10T03:33:47;20.63;;;13.93;;
36351;SDS011;22382;44.768;17.206;2023-04-10T03:36:14;20.27;;;14.43;;
36351;SDS011;22382;44.768;17.206;2023-04-10T03:38:42;20.92;;;13.63;;
36351;SDS011;22382;44.768;17.206;2023-04-10T03:41:09;21.40;;;13.88;;
36351;SDS011;22382;44.768;17.206;2023-04-10T03:43:36;25.10;;;16.25;;
36351;SDS011;22382;44.768;17.206;2023-04-10T03:46:04;26.42;;;17.17;;
36351;SDS011;22382;44.768;17.206;2023-04-10T03:48:31;27.80;;;17.55;;
36351;SDS011;22382;44.768;17.206;2023-04-10T03:50:58;28.17;;;16.52;;
36351;SDS011;22382;44.768;17.206;2023-04-10T03:53:26;25.80;;;16.50;;
36351;SDS011;22382;44.768;17.206;2023-04-10T03:55:53;27.55;;;17.17;;
36351;SDS011;22382;44.768;17.206;2023-04-10T03:58:20;28.67;;;17.58;;
36351;SDS011;22382;44.768;17.206;2023-04-10T04:00:47;25.48;;;16.77;;
36351;SDS011;22382;44.768;17.206;2023-04-10T04:03:14;25.33;;;17.52;;
36351;SDS011;22382;44.768;17.206;2023-04-10T04:05:42;26.63;;;18.02;;
36351;SDS011;22382;44.768;17.206;2023-04-10T04:08:09;25.67;;;17.10;;
36351;SDS011;22382;44.768;17.206;2023-04-10T04:10:36;24.88;;;16.20;;
36351;SDS011;22382;44.768;17.206;2023-04-10T04:13:03;22.05;;;14.90;;
36351;SDS011;22382;44.768;17.206;2023-04-10T04:15:30;22.83;;;16.17;;
36351;SDS011;22382;44.768;17.206;2023-04-10T04:17:57;22.50;;;15.10;;
36351;SDS011;22382;44.768;17.206;2023-04-10T04:20:26;20.73;;;14.75;;
36351;SDS011;22382;44.768;17.206;2023-04-10T04:22:53;21.00;;;15.02;;
36351;SDS011;22382;44.768;17.206;2023-04-10T04:25:20;22.85;;;15.05;;
36351;SDS011;22382;44.768;17.206;2023-04-10T04:27:47;22.92;;;15.27;;
36351;SDS011;22382;44.768;17.206;2023-04-10T04:30:14;20.48;;;13.65;;
36351;SDS011;22382;44.768;17.206;2023-04-10T04:32:41;21.08;;;14.50;;
36351;SDS011;22382;44.768;17.206;2023-04-10T04:35:09;20.65;;;14.63;;
36351;SDS011;22382;44.768;17.206;2023-04-10T04:37:36;23.15;;;16.15;;
36351;SDS011;22382;44.768;17.206;2023-04-10T04:40:03;22.50;;;16.98;;
36351;SDS011;22382;44.768;17.206;2023-04-10T04:42:31;24.45;;;17.55;;
36351;SDS011;22382;44.768;17.206;2023-04-10T04:44:58;24.20;;;16.83;;
36351;SDS011;22382;44.768;17.206;2023-04-10T04:47:25;25.95;;;17.70;;
36351;SDS011;22382;44.768;17.206;2023-04-10T04:49:52;22.77;;;15.55;;
36351;SDS011;22382;44.768;17.206;2023-04-10T04:52:19;23.95;;;15.65;;
36351;SDS011;22382;44.768;17.206;2023-04-10T04:54:46;22.77;;;15.02;;
36351;SDS011;22382;44.768;17.206;2023-04-10T04:57:13;20.65;;;14.85;;
36351;SDS011;22382;44.768;17.206;2023-04-10T04:59:40;25.10;;;15.77;;
36351;SDS011;22382;44.768;17.206;2023-04-10T05:02:08;21.85;;;14.07;;
36351;SDS011;22382;44.768;17.206;2023-04-10T05:04:35;22.98;;;14.93;;
36351;SDS011;22382;44.768;17.206;2023-04-10T05:07:02;20.98;;;13.68;;
36351;SDS011;22382;44.768;17.206;2023-04-10T05:09:29;18.15;;;13.40;;
36351;SDS011;22382;44.768;17.206;2023-04-10T05:11:56;22.92;;;15.10;;
36351;SDS011;22382;44.768;17.206;2023-04-10T05:14:24;20.02;;;14.30;;
36351;SDS011;22382;44.768;17.206;2023-04-10T05:16:51;20.40;;;13.75;;
36351;SDS011;22382;44.768;17.206;2023-04-10T05:19:18;20.20;;;13.75;;
36351;SDS011;22382;44.768;17.206;2023-04-10T05:21:46;26.15;;;15.93;;
36351;SDS011;22382;44.768;17.206;2023-04-10T05:24:13;22.88;;;15.10;;
36351;SDS011;22382;44.768;17.206;2023-04-10T05:26:41;23.27;;;15.10;;
36351;SDS011;22382;44.768;17.206;2023-04-10T05:29:10;21.13;;;14.25;;
36351;SDS011;22382;44.768;17.206;2023-04-10T05:31:37;22.02;;;14.65;;
36351;SDS011;22382;44.768;17.206;2023-04-10T05:34:04;31.40;;;18.58;;
36351;SDS011;22382;44.768;17.206;2023-04-10T05:36:32;35.33;;;21.38;;
36351;SDS011;22382;44.768;17.206;2023-04-10T05:38:59;34.47;;;20.73;;
36351;SDS011;22382;44.768;17.206;2023-04-10T05:41:26;25.65;;;17.48;;
36351;SDS011;22382;44.768;17.206;2023-04-10T05:43:53;27.92;;;18.55;;
36351;SDS011;22382;44.768;17.206;2023-04-10T05:46:20;29.92;;;18.63;;
36351;SDS011;22382;44.768;17.206;2023-04-10T05:48:47;24.35;;;15.88;;
36351;SDS011;22382;44.768;17.206;2023-04-10T05:51:14;24.27;;;16.70;;
36351;SDS011;22382;44.768;17.206;2023-04-10T05:53:42;26.75;;;17.50;;
36351;SDS011;22382;44.768;17.206;2023-04-10T05:56:09;23.17;;;16.63;;
36351;SDS011;22382;44.768;17.206;2023-04-10T05:58:36;24.45;;;17.42;;
36351;SDS011;22382;44.768;17.206;2023-04-10T06:01:03;22.52;;;16.73;;
36351;SDS011;22382;44.768;17.206;2023-04-10T06:03:30;20.23;;;14.65;;
36351;SDS011;22382;44.768;17.206;2023-04-10T06:05:59;23.92;;;16.02;;
36351;SDS011;22382;44.768;17.206;2023-04-10T06:08:27;22.98;;;16.40;;
36351;SDS011;22382;44.768;17.206;2023-04-10T06:10:54;21.65;;;14.88;;
36351;SDS011;22382;44.768;17.206;2023-04-10T06:13:22;25.00;;;16.67;;
36351;SDS011;22382;44.768;17.206;2023-04-10T06:15:50;19.15;;;14.40;;
36351;SDS011;22382;44.768;17.206;2023-04-10T06:18:17;22.08;;;15.65;;
36351;SDS011;22382;44.768;17.206;2023-04-10T06:20:44;20.27;;;14.68;;
36351;SDS011;22382;44.768;17.206;2023-04-10T06:23:12;20.60;;;14.73;;
36351;SDS011;22382;44.768;17.206;2023-04-10T06:25:39;20.90;;;14.02;;
36351;SDS011;22382;44.768;17.206;2023-04-10T06:28:07;21.27;;;14.50;;
36351;SDS011;22382;44.768;17.206;2023-04-10T06:30:34;20.45;;;14.57;;
36351;SDS011;22382;44.768;17.206;2023-04-10T06:33:02;17.40;;;13.50;;
36351;SDS011;22382;44.768;17.206;2023-04-10T06:35:29;18.10;;;13.63;;
36351;SDS011;22382;44.768;17.206;2023-04-10T06:37:57;18.83;;;14.23;;
36351;SDS011;22382;44.768;17.206;2023-04-10T06:40:24;19.08;;;14.27;;
36351;SDS011;22382;44.768;17.206;2023-04-10T06:42:51;19.08;;;13.00;;
36351;SDS011;22382;44.768;17.206;2023-04-10T06:45:18;21.00;;;14.25;;
36351;SDS011;22382;44.768;17.206;2023-04-10T06:47:46;23.45;;;16.48;;
36351;SDS011;22382;44.768;17.206;2023-04-10T06:50:14;28.00;;;16.80;;
36351;SDS011;22382;44.768;17.206;2023-04-10T06:52:41;21.48;;;15.32;;
36351;SDS011;22382;44.768;17.206;2023-04-10T06:55:09;19.23;;;14.38;;
36351;SDS011;22382;44.768;17.206;2023-04-10T06:57:38;21.52;;;14.82;;
36351;SDS011;22382;44.768;17.206;2023-04-10T07:00:05;20.77;;;14.90;;
36351;SDS011;22382;44.768;17.206;2023-04-10T07:02:33;19.33;;;13.48;;
36351;SDS011;22382;44.768;17.206;2023-04-10T07:05:00;16.23;;;11.68;;
36351;SDS011;22382;44.768;17.206;2023-04-10T07:07:28;18.45;;;13.98;;
36351;SDS011;22382;44.768;17.206;2023-04-10T07:09:55;18.55;;;13.75;;
36351;SDS011;22382;44.768;17.206;2023-04-10T07:12:23;18.05;;;11.68;;
36351;SDS011;22382;44.768;17.206;2023-04-10T07:14:50;16.85;;;12.98;;
36351;SDS011;22382;44.768;17.206;2023-04-10T07:17:18;17.50;;;12.63;;
36351;SDS011;22382;44.768;17.206;2023-04-10T07:19:45;15.07;;;11.45;;
36351;SDS011;22382;44.768;17.206;2023-04-10T07:22:12;20.23;;;14.60;;
36351;SDS011;22382;44.768;17.206;2023-04-10T07:24:41;20.17;;;14.65;;
36351;SDS011;22382;44.768;17.206;2023-04-10T07:27:08;17.73;;;12.95;;
36351;SDS011;22382;44.768;17.206;2023-04-10T07:29:35;20.38;;;15.70;;
36351;SDS011;22382;44.768;17.206;2023-04-10T07:32:03;22.90;;;14.60;;
36351;SDS011;22382;44.768;17.206;2023-04-10T07:34:30;19.02;;;13.38;;
36351;SDS011;22382;44.768;17.206;2023-04-10T07:36:58;19.20;;;14.43;;
36351;SDS011;22382;44.768;17.206;2023-04-10T07:39:26;19.13;;;12.82;;
36351;SDS011;22382;44.768;17.206;2023-04-10T07:41:53;19.10;;;13.88;;
36351;SDS011;22382;44.768;17.206;2023-04-10T07:44:20;18.02;;;14.15;;
36351;SDS011;22382;44.768;17.206;2023-04-10T07:46:48;18.50;;;13.98;;
36351;SDS011;22382;44.768;17.206;2023-04-10T07:49:17;18.42;;;14.02;;
36351;SDS011;22382;44.768;17.206;2023-04-10T07:51:44;18.60;;;13.68;;
36351;SDS011;22382;44.768;17.206;2023-04-10T07:54:11;21.55;;;15.07;;
36351;SDS011;22382;44.768;17.206;2023-04-10T07:56:39;19.35;;;14.93;;
36351;SDS011;22382;44.768;17.206;2023-04-10T07:59:06;20.45;;;15.30;;
36351;SDS011;22382;44.768;17.206;2023-04-10T08:01:33;21.30;;;14.55;;
36351;SDS011;22382;44.768;17.206;2023-04-10T08:04:01;18.98;;;14.55;;
36351;SDS011;22382;44.768;17.206;2023-04-10T08:06:31;20.00;;;15.35;;
36351;SDS011;22382;44.768;17.206;2023-04-10T08:08:58;18.98;;;14.85;;
36351;SDS011;22382;44.768;17.206;2023-04-10T08:11:28;22.60;;;16.00;;
36351;SDS011;22382;44.768;17.206;2023-04-10T08:13:57;18.10;;;13.68;;
36351;SDS011;22382;44.768;17.206;2023-04-10T08:16:29;19.23;;;11.05;;
36351;SDS011;22382;44.768;17.206;2023-04-10T08:18:58;22.75;;;15.02;;
36351;SDS011;22382;44.768;17.206;2023-04-10T08:21:27;16.65;;;12.98;;
36351;SDS011;22382;44.768;17.206;2023-04-10T08:23:56;17.63;;;12.20;;
36351;SDS011;22382;44.768;17.206;2023-04-10T08:26:25;19.25;;;13.05;;
36351;SDS011;22382;44.768;17.206;2023-04-10T08:28:53;18.13;;;13.65;;
36351;SDS011;22382;44.768;17.206;2023-04-10T08:31:23;19.05;;;13.38;;
36351;SDS011;22382;44.768;17.206;2023-04-10T08:33:52;15.27;;;12.00;;
36351;SDS011;22382;44.768;17.206;2023-04-10T08:36:20;15.48;;;11.73;;
36351;SDS011;22382;44.768;17.206;2023-04-10T08:38:47;20.38;;;12.52;;
36351;SDS011;22382;44.768;17.206;2023-04-10T08:41:15;13.93;;;11.13;;
36351;SDS011;22382;44.768;17.206;2023-04-10T08:43:43;14.57;;;11.02;;
36351;SDS011;22382;44.768;17.206;2023-04-10T08:46:14;14.68;;;11.15;;
36351;SDS011;22382;44.768;17.206;2023-04-10T08:51:16;14.50;;;11.90;;
36351;SDS011;22382;44.768;17.206;2023-04-10T08:53:53;17.75;;;11.85;;
36351;SDS011;22382;44.768;17.206;2023-04-10T08:56:24;14.60;;;11.52;;
36351;SDS011;22382;44.768;17.206;2023-04-10T08:58:52;15.32;;;11.52;;
36351;SDS011;22382;44.768;17.206;2023-04-10T09:01:20;15.13;;;11.18;;
36351;SDS011;22382;44.768;17.206;2023-04-10T09:03:47;17.33;;;11.90;;
36351;SDS011;22382;44.768;17.206;2023-04-10T09:06:14;14.57;;;10.63;;
36351;SDS011;22382;44.768;17.206;2023-04-10T09:08:42;14.63;;;11.18;;
36351;SDS011;22382;44.768;17.206;2023-04-10T09:11:09;15.40;;;12.35;;
36351;SDS011;22382;44.768;17.206;2023-04-10T09:13:39;15.77;;;12.63;;
36351;SDS011;22382;44.768;17.206;2023-04-10T09:16:09;17.95;;;13.35;;
36351;SDS011;22382;44.768;17.206;2023-04-10T09:21:15;15.77;;;12.27;;
36351;SDS011;22382;44.768;17.206;2023-04-10T09:23:46;15.27;;;10.93;;
36351;SDS011;22382;44.768;17.206;2023-04-10T09:26:24;16.55;;;11.68;;
36351;SDS011;22382;44.768;17.206;2023-04-10T09:31:28;17.60;;;12.80;;
36351;SDS011;22382;44.768;17.206;2023-04-10T09:36:36;16.17;;;11.57;;
36351;SDS011;22382;44.768;17.206;2023-04-10T09:39:04;17.83;;;11.85;;
36351;SDS011;22382;44.768;17.206;2023-04-10T09:41:31;17.20;;;11.48;;
36351;SDS011;22382;44.768;17.206;2023-04-10T09:44:08;14.23;;;10.82;;
36351;SDS011;22382;44.768;17.206;2023-04-10T09:46:37;14.65;;;11.23;;
36351;SDS011;22382;44.768;17.206;2023-04-10T09:49:04;20.27;;;12.18;;
36351;SDS011;22382;44.768;17.206;2023-04-10T09:51:33;14.45;;;10.55;;
36351;SDS011;22382;44.768;17.206;2023-04-10T09:54:01;18.30;;;11.57;;
36351;SDS011;22382;44.768;17.206;2023-04-10T09:56:29;14.13;;;10.13;;
36351;SDS011;22382;44.768;17.206;2023-04-10T09:58:59;15.45;;;9.88;;
36351;SDS011;22382;44.768;17.206;2023-04-10T10:01:27;14.70;;;9.85;;
36351;SDS011;22382;44.768;17.206;2023-04-10T10:03:55;13.90;;;10.32;;
36351;SDS011;22382;44.768;17.206;2023-04-10T10:06:27;14.20;;;10.07;;
36351;SDS011;22382;44.768;17.206;2023-04-10T10:09:00;12.68;;;9.35;;
36351;SDS011;22382;44.768;17.206;2023-04-10T10:11:33;11.75;;;8.90;;
36351;SDS011;22382;44.768;17.206;2023-04-10T10:14:02;13.18;;;9.27;;
36351;SDS011;22382;44.768;17.206;2023-04-10T10:16:48;11.63;;;8.55;;
36351;SDS011;22382;44.768;17.206;2023-04-10T10:19:20;13.73;;;9.38;;
36351;SDS011;22382;44.768;17.206;2023-04-10T10:22:05;20.00;;;13.00;;
36351;SDS011;22382;44.768;17.206;2023-04-10T10:24:53;11.77;;;9.27;;
36351;SDS011;22382;44.768;17.206;2023-04-10T10:27:22;11.60;;;8.73;;
36351;SDS011;22382;44.768;17.206;2023-04-10T10:29:51;11.63;;;8.70;;
36351;SDS011;22382;44.768;17.206;2023-04-10T10:32:20;11.10;;;8.45;;
36351;SDS011;22382;44.768;17.206;2023-04-10T10:34:49;14.25;;;9.85;;
36351;SDS011;22382;44.768;17.206;2023-04-10T10:37:21;11.48;;;9.20;;
36351;SDS011;22382;44.768;17.206;2023-04-10T10:42:35;13.35;;;10.10;;
36351;SDS011;22382;44.768;17.206;2023-04-10T10:47:40;15.27;;;11.70;;
36351;SDS011;22382;44.768;17.206;2023-04-10T10:50:10;15.38;;;10.13;;
36351;SDS011;22382;44.768;17.206;2023-04-10T10:57:48;26.98;;;19.85;;
36351;SDS011;22382;44.768;17.206;2023-04-10T11:00:20;33.60;;;22.92;;
36351;SDS011;22382;44.768;17.206;2023-04-10T11:05:53;18.30;;;12.55;;
36351;SDS011;22382;44.768;17.206;2023-04-10T11:15:59;12.10;;;8.45;;
36351;SDS011;22382;44.768;17.206;2023-04-10T11:21:27;12.38;;;8.60;;
36351;SDS011;22382;44.768;17.206;2023-04-10T11:29:01;12.57;;;9.68;;
36351;SDS011;22382;44.768;17.206;2023-04-10T11:31:38;10.68;;;7.95;;
36351;SDS011;22382;44.768;17.206;2023-04-10T11:34:06;10.70;;;8.18;;
36351;SDS011;22382;44.768;17.206;2023-04-10T11:36:36;10.52;;;8.70;;
36351;SDS011;22382;44.768;17.206;2023-04-10T11:39:08;17.05;;;11.85;;
36351;SDS011;22382;44.768;17.206;2023-04-10T11:41:40;11.70;;;8.80;;
36351;SDS011;22382;44.768;17.206;2023-04-10T11:44:16;16.52;;;11.40;;
36351;SDS011;22382;44.768;17.206;2023-04-10T11:46:47;13.63;;;9.65;;
36351;SDS011;22382;44.768;17.206;2023-04-10T11:49:20;13.88;;;9.85;;
36351;SDS011;22382;44.768;17.206;2023-04-10T11:51:52;12.30;;;8.70;;
36351;SDS011;22382;44.768;17.206;2023-04-10T11:54:21;13.20;;;9.55;;
36351;SDS011;22382;44.768;17.206;2023-04-10T11:57:06;11.85;;;9.18;;
36351;SDS011;22382;44.768;17.206;2023-04-10T11:59:35;12.68;;;9.10;;
36351;SDS011;22382;44.768;17.206;2023-04-10T12:04:37;13.90;;;9.10;;
36351;SDS011;22382;44.768;17.206;2023-04-10T12:07:06;11.57;;;9.20;;
36351;SDS011;22382;44.768;17.206;2023-04-10T12:09:33;11.15;;;7.95;;
36351;SDS011;22382;44.768;17.206;2023-04-10T12:14:32;9.95;;;8.10;;
36351;SDS011;22382;44.768;17.206;2023-04-10T12:17:05;11.93;;;8.57;;
36351;SDS011;22382;44.768;17.206;2023-04-10T12:19:37;11.40;;;8.18;;
36351;SDS011;22382;44.768;17.206;2023-04-10T12:22:05;11.80;;;8.45;;
36351;SDS011;22382;44.768;17.206;2023-04-10T12:27:20;12.18;;;9.75;;
36351;SDS011;22382;44.768;17.206;2023-04-10T12:29:54;12.32;;;8.35;;
36351;SDS011;22382;44.768;17.206;2023-04-10T12:32:23;11.57;;;8.93;;
36351;SDS011;22382;44.768;17.206;2023-04-10T12:34:51;12.43;;;9.52;;
36351;SDS011;22382;44.768;17.206;2023-04-10T12:37:23;13.48;;;8.60;;
36351;SDS011;22382;44.768;17.206;2023-04-10T12:39:52;12.07;;;9.20;;
36351;SDS011;22382;44.768;17.206;2023-04-10T12:42:30;15.13;;;9.40;;
36351;SDS011;22382;44.768;17.206;2023-04-10T12:45:07;12.25;;;8.80;;
36351;SDS011;22382;44.768;17.206;2023-04-10T12:47:45;13.48;;;9.13;;
36351;SDS011;22382;44.768;17.206;2023-04-10T12:50:15;11.00;;;9.02;;
36351;SDS011;22382;44.768;17.206;2023-04-10T12:52:44;14.00;;;8.70;;
36351;SDS011;22382;44.768;17.206;2023-04-10T12:55:13;9.93;;;8.07;;
36351;SDS011;22382;44.768;17.206;2023-04-10T12:57:46;10.85;;;8.23;;
36351;SDS011;22382;44.768;17.206;2023-04-10T13:00:15;12.52;;;9.23;;
36351;SDS011;22382;44.768;17.206;2023-04-10T13:02:44;8.52;;;6.93;;
36351;SDS011;22382;44.768;17.206;2023-04-10T13:05:13;8.35;;;7.13;;
36351;SDS011;22382;44.768;17.206;2023-04-10T13:07:41;10.02;;;7.60;;
36351;SDS011;22382;44.768;17.206;2023-04-10T13:10:08;11.27;;;8.05;;
36351;SDS011;22382;44.768;17.206;2023-04-10T13:12:35;11.65;;;9.18;;
36351;SDS011;22382;44.768;17.206;2023-04-10T13:15:04;11.82;;;8.18;;
36351;SDS011;22382;44.768;17.206;2023-04-10T13:17:33;11.20;;;8.52;;
36351;SDS011;22382;44.768;17.206;2023-04-10T13:20:00;10.02;;;8.27;;
36351;SDS011;22382;44.768;17.206;2023-04-10T13:22:28;11.55;;;8.02;;
36351;SDS011;22382;44.768;17.206;2023-04-10T13:24:55;10.68;;;8.35;;
36351;SDS011;22382;44.768;17.206;2023-04-10T13:27:22;12.00;;;8.30;;
36351;SDS011;22382;44.768;17.206;2023-04-10T13:29:49;8.80;;;7.50;;
36351;SDS011;22382;44.768;17.206;2023-04-10T13:32:16;9.60;;;8.00;;
36351;SDS011;22382;44.768;17.206;2023-04-10T13:34:43;11.00;;;8.27;;
36351;SDS011;22382;44.768;17.206;2023-04-10T13:37:10;13.02;;;8.02;;
36351;SDS011;22382;44.768;17.206;2023-04-10T13:39:38;10.98;;;8.70;;
36351;SDS011;22382;44.768;17.206;2023-04-10T13:42:06;9.68;;;7.40;;
36351;SDS011;22382;44.768;17.206;2023-04-10T13:44:33;12.82;;;9.27;;
36351;SDS011;22382;44.768;17.206;2023-04-10T13:47:00;11.05;;;8.65;;
36351;SDS011;22382;44.768;17.206;2023-04-10T13:49:27;7.30;;;6.53;;
36351;SDS011;22382;44.768;17.206;2023-04-10T13:51:56;10.95;;;8.35;;
36351;SDS011;22382;44.768;17.206;2023-04-10T13:54:23;11.27;;;7.22;;
36351;SDS011;22382;44.768;17.206;2023-04-10T13:56:51;10.30;;;8.18;;
36351;SDS011;22382;44.768;17.206;2023-04-10T13:59:20;8.88;;;6.85;;
36351;SDS011;22382;44.768;17.206;2023-04-10T14:01:47;9.07;;;7.47;;
36351;SDS011;22382;44.768;17.206;2023-04-10T14:04:18;8.93;;;7.32;;
36351;SDS011;22382;44.768;17.206;2023-04-10T14:06:45;11.02;;;7.95;;
36351;SDS011;22382;44.768;17.206;2023-04-10T14:09:14;14.02;;;9.23;;
36351;SDS011;22382;44.768;17.206;2023-04-10T14:11:41;10.52;;;8.70;;
36351;SDS011;22382;44.768;17.206;2023-04-10T14:14:08;10.55;;;8.60;;
36351;SDS011;22382;44.768;17.206;2023-04-10T14:16:35;10.52;;;8.25;;
36351;SDS011;22382;44.768;17.206;2023-04-10T14:19:02;10.93;;;8.45;;
36351;SDS011;22382;44.768;17.206;2023-04-10T14:21:29;11.45;;;7.75;;
36351;SDS011;22382;44.768;17.206;2023-04-10T14:23:57;10.85;;;8.75;;
36351;SDS011;22382;44.768;17.206;2023-04-10T14:26:25;13.85;;;9.50;;
36351;SDS011;22382;44.768;17.206;2023-04-10T14:28:52;9.93;;;7.30;;
36351;SDS011;22382;44.768;17.206;2023-04-10T14:31:20;9.18;;;6.90;;
36351;SDS011;22382;44.768;17.206;2023-04-10T14:33:47;9.80;;;6.97;;
36351;SDS011;22382;44.768;17.206;2023-04-10T14:36:14;10.88;;;7.70;;
36351;SDS011;22382;44.768;17.206;2023-04-10T14:38:42;10.15;;;7.38;;
36351;SDS011;22382;44.768;17.206;2023-04-10T14:41:09;10.38;;;8.07;;
36351;SDS011;22382;44.768;17.206;2023-04-10T14:43:36;9.63;;;7.30;;
36351;SDS011;22382;44.768;17.206;2023-04-10T14:46:04;8.63;;;6.25;;
36351;SDS011;22382;44.768;17.206;2023-04-10T14:48:31;9.40;;;5.78;;
36351;SDS011;22382;44.768;17.206;2023-04-10T14:50:59;7.95;;;6.20;;
36351;SDS011;22382;44.768;17.206;2023-04-10T14:53:26;8.32;;;6.70;;
36351;SDS011;22382;44.768;17.206;2023-04-10T14:55:53;8.57;;;6.50;;
36351;SDS011;22382;44.768;17.206;2023-04-10T14:58:21;6.07;;;5.05;;
36351;SDS011;22382;44.768;17.206;2023-04-10T15:00:48;6.72;;;6.03;;
36351;SDS011;22382;44.768;17.206;2023-04-10T15:03:16;6.85;;;5.20;;
36351;SDS011;22382;44.768;17.206;2023-04-10T15:05:43;9.40;;;5.82;;
36351;SDS011;22382;44.768;17.206;2023-04-10T15:08:11;9.82;;;6.72;;
36351;SDS011;22382;44.768;17.206;2023-04-10T15:10:38;7.18;;;5.97;;
36351;SDS011;22382;44.768;17.206;2023-04-10T15:13:05;8.55;;;6.85;;
36351;SDS011;22382;44.768;17.206;2023-04-10T15:15:32;7.95;;;5.88;;
36351;SDS011;22382;44.768;17.206;2023-04-10T15:17:59;6.95;;;6.00;;
36351;SDS011;22382;44.768;17.206;2023-04-10T15:20:26;13.32;;;7.35;;
36351;SDS011;22382;44.768;17.206;2023-04-10T15:22:54;7.90;;;6.28;;